Decoded Metar for LFQA (REIMS in FRANCE) (IATA:N/A) | Meteo·Mobile Aviation Weather
aviador You're here:

LFQA Decoded Metar

REIMS in FRANCE
Report Time2019-04-20 10:00:00
UTC Time2019-04-20 10:19:23
Flight Rules vfr VFR
Wind040° at 05 kt
W.Decomp.*RWY 07: 4.3 kt HW 2.5 kt LCW
Visibility9999 m
Phenomena:N/A
Clouds:N/A
Expected CloudBase > 5,600 ft AGL from Temp-Dew spread
CeilingNone
Temp21°C (ISA +7)
Dew Point07°C (40% RH)
AAT18.5°C
QNH1026 hPa
Density Alt787 ft
Elevation312 ft
Report Wrong Elevation
Raw Report
METAR LFQA 201000Z AUTO 04005KT 350V080 CAVOK 21/07 Q1026=

Extra information for LFQA:More info

Metar Taf Metar & Taf Last 4 Metars F.Rules Stats Wind Profile Meteogram Temp Stats Airport Information Weather charts Add Link Nearby VenuesMetar ALERT Operation Metar Decoded Social comments